createdAt,value
2018-04-02T00:01:48.708Z,24.77
2018-04-02T00:04:17.149Z,24.57
2018-04-02T00:06:45.497Z,25.93
2018-04-02T00:09:13.847Z,25.70
2018-04-02T00:11:42.204Z,24.33
2018-04-02T00:14:10.585Z,24.27
2018-04-02T00:16:38.917Z,25.73
2018-04-02T00:19:08.140Z,25.30
2018-04-02T00:21:36.499Z,27.10
2018-04-02T00:24:05.635Z,25.50
2018-04-02T00:26:33.993Z,27.17
2018-04-02T00:29:02.356Z,26.53
2018-04-02T00:31:30.896Z,26.63
2018-04-02T00:33:59.327Z,27.10
2018-04-02T00:36:27.718Z,26.00
2018-04-02T00:38:56.060Z,27.27
2018-04-02T00:41:25.193Z,26.80
2018-04-02T00:43:53.563Z,26.77
2018-04-02T00:46:22.036Z,27.10
2018-04-02T00:48:50.426Z,26.40
2018-04-02T00:51:18.760Z,25.07
2018-04-02T00:53:47.128Z,27.43
2018-04-02T00:56:15.513Z,27.27
2018-04-02T00:58:44.349Z,29.13
2018-04-02T01:01:12.717Z,27.53
2018-04-02T01:03:41.149Z,27.33
2018-04-02T01:06:09.483Z,26.93
2018-04-02T01:08:37.899Z,26.17
2018-04-02T01:11:06.273Z,25.53
2018-04-02T01:13:34.699Z,26.63
2018-04-02T01:16:03.036Z,28.07
2018-04-02T01:18:31.406Z,26.00
2018-04-02T01:20:59.752Z,25.23
2018-04-02T01:23:28.093Z,27.00
2018-04-02T01:25:56.443Z,27.30
2018-04-02T01:28:24.790Z,28.10
2018-04-02T01:30:53.159Z,29.43
2018-04-02T01:33:23.007Z,30.30
2018-04-02T01:35:51.400Z,32.20
2018-04-02T01:38:19.817Z,33.73
2018-04-02T01:40:48.253Z,33.10
2018-04-02T01:43:16.587Z,32.80
2018-04-02T01:45:45.106Z,33.37
2018-04-02T01:48:13.452Z,33.47
2018-04-02T01:50:42.568Z,34.97
2018-04-02T01:53:10.929Z,33.27
2018-04-02T01:55:40.030Z,33.40
2018-04-02T01:58:09.149Z,35.00
2018-04-02T02:00:37.501Z,34.13
2018-04-02T02:03:06.601Z,34.50
2018-04-02T02:05:34.943Z,37.50
2018-04-02T02:08:03.383Z,38.43
2018-04-02T02:10:31.724Z,39.03
2018-04-02T02:13:00.837Z,39.63
2018-04-02T02:15:29.450Z,36.80
2018-04-02T02:20:32.667Z,40.03
2018-04-02T02:23:01.187Z,38.90
2018-04-02T02:25:29.526Z,38.97
2018-04-02T02:27:57.936Z,37.57
2018-04-02T02:30:26.286Z,38.40
2018-04-02T02:32:54.733Z,38.80
2018-04-02T02:35:23.822Z,38.03
2018-04-02T02:37:52.925Z,38.33
2018-04-02T02:40:21.265Z,39.07
2018-04-02T02:42:50.561Z,39.87
2018-04-02T02:45:18.909Z,41.50
2018-04-02T02:47:47.253Z,39.20
2018-04-02T02:50:16.369Z,40.97
2018-04-02T02:52:44.781Z,40.13
2018-04-02T02:55:13.132Z,39.60
2018-04-02T02:57:41.473Z,41.20
2018-04-02T03:00:10.579Z,40.23
2018-04-02T03:02:39.706Z,41.93
2018-04-02T03:05:08.096Z,40.57
2018-04-02T03:07:36.415Z,39.03
2018-04-02T03:10:04.811Z,39.73
2018-04-02T03:12:33.236Z,38.80
2018-04-02T03:15:01.583Z,37.30
2018-04-02T03:17:30.678Z,37.73
2018-04-02T03:19:59.806Z,37.23
2018-04-02T03:22:28.202Z,36.50
2018-04-02T03:24:56.556Z,34.00
2018-04-02T03:27:25.503Z,35.73
2018-04-02T03:29:53.837Z,32.93
2018-04-02T03:32:22.200Z,32.07
2018-04-02T03:34:50.536Z,32.77
2018-04-02T03:37:18.970Z,31.37
2018-04-02T03:39:47.341Z,29.77
2018-04-02T03:42:15.707Z,27.13
2018-04-02T03:44:44.064Z,28.07
2018-04-02T03:47:13.198Z,25.70
2018-04-02T03:49:41.551Z,27.50
2018-04-02T03:52:10.064Z,25.07
2018-04-02T03:54:38.415Z,24.17
2018-04-02T03:57:07.554Z,26.37
2018-04-02T03:59:35.947Z,24.13
2018-04-02T04:02:04.291Z,24.37
2018-04-02T04:04:32.678Z,26.50
2018-04-02T04:07:01.017Z,26.83
2018-04-02T04:09:30.153Z,26.03
2018-04-02T04:11:58.495Z,27.67
2018-04-02T04:14:27.617Z,26.73
2018-04-02T04:16:55.961Z,24.70
2018-04-02T04:19:24.315Z,26.07
2018-04-02T04:21:52.661Z,24.90
2018-04-02T04:24:20.993Z,26.30
2018-04-02T04:26:49.352Z,27.13
2018-04-02T04:29:17.702Z,26.00
2018-04-02T04:31:46.059Z,25.60
2018-04-02T04:34:14.412Z,26.07
2018-04-02T04:36:42.772Z,24.43
2018-04-02T04:39:11.116Z,25.53
2018-04-02T04:41:39.487Z,25.47
2018-04-02T04:44:07.864Z,27.67
2018-04-02T04:46:36.210Z,27.40
2018-04-02T04:49:04.557Z,26.40
2018-04-02T04:51:32.939Z,25.67
2018-04-02T04:54:01.261Z,27.30
2018-04-02T04:56:29.596Z,25.43
2018-04-02T04:58:58.046Z,28.77
2018-04-02T05:01:26.512Z,29.13
2018-04-02T05:03:55.016Z,28.13
2018-04-02T05:06:23.345Z,26.37
2018-04-02T05:08:51.739Z,29.07
2018-04-02T05:11:20.865Z,29.23
2018-04-02T05:13:51.545Z,28.20
2018-04-02T05:16:19.989Z,29.47
2018-04-02T05:18:48.344Z,29.70
2018-04-02T05:21:16.694Z,31.70
2018-04-02T05:23:45.027Z,28.63
2018-04-02T05:26:13.420Z,29.77
2018-04-02T05:28:41.805Z,28.83
2018-04-02T05:31:10.159Z,27.70
2018-04-02T05:33:38.541Z,27.07
2018-04-02T05:36:06.997Z,27.97
2018-04-02T05:38:35.375Z,28.20
2018-04-02T05:41:03.722Z,28.30
2018-04-02T05:43:32.067Z,29.80
2018-04-02T05:46:00.574Z,30.93
2018-04-02T05:48:28.928Z,30.33
2018-04-02T05:50:57.402Z,34.47
2018-04-02T05:53:25.772Z,32.30
2018-04-02T05:55:54.120Z,33.13
2018-04-02T05:58:22.469Z,33.47
2018-04-02T06:00:50.878Z,36.93
2018-04-02T06:03:20.001Z,34.37
2018-04-02T06:05:48.389Z,37.50
2018-04-02T06:08:16.766Z,37.40
2018-04-02T06:10:45.249Z,37.50
2018-04-02T06:13:13.584Z,36.10
2018-04-02T06:15:42.704Z,36.50
2018-04-02T06:18:11.045Z,38.20
2018-04-02T06:20:39.395Z,36.93
2018-04-02T06:23:07.741Z,37.57
2018-04-02T06:25:36.109Z,35.80
2018-04-02T06:28:04.466Z,34.57
2018-04-02T06:30:32.870Z,33.50
2018-04-02T06:33:01.288Z,35.93
2018-04-02T06:35:29.649Z,33.80
2018-04-02T06:37:59.476Z,31.90
2018-04-02T06:40:27.812Z,32.87
2018-04-02T06:42:56.935Z,32.37
2018-04-02T06:45:25.276Z,33.10
2018-04-02T06:47:53.637Z,31.43
2018-04-02T06:50:22.165Z,30.30
2018-04-02T06:52:50.516Z,29.27
2018-04-02T06:55:19.610Z,32.07
2018-04-02T06:57:47.973Z,31.13
2018-04-02T07:00:16.319Z,28.07
2018-04-02T07:02:44.676Z,28.73
2018-04-02T07:05:13.133Z,27.70
2018-04-02T07:07:42.245Z,28.00
2018-04-02T07:10:11.358Z,27.40
2018-04-02T07:12:39.752Z,27.80
2018-04-02T07:15:08.232Z,26.27
2018-04-02T07:17:36.584Z,28.23
2018-04-02T07:20:04.948Z,29.47
2018-04-02T07:22:34.072Z,30.13
2018-04-02T07:25:02.460Z,29.63
2018-04-02T07:27:30.833Z,29.83
2018-04-02T07:29:59.172Z,31.17
2018-04-02T07:32:27.646Z,30.57
2018-04-02T07:34:56.028Z,30.83
2018-04-02T07:37:24.393Z,29.93
2018-04-02T07:39:52.725Z,32.63
2018-04-02T07:42:21.108Z,35.90
2018-04-02T07:44:49.462Z,36.80
2018-04-02T07:47:18.575Z,38.37
2018-04-02T07:49:46.925Z,33.33
2018-04-02T07:52:15.260Z,35.73
2018-04-02T07:54:43.844Z,35.77
2018-04-02T07:57:12.210Z,37.20
2018-04-02T07:59:40.544Z,35.60
2018-04-02T08:02:09.669Z,37.60
2018-04-02T08:04:38.323Z,35.10
2018-04-02T08:07:06.646Z,42.17
2018-04-02T08:09:35.000Z,40.90
2018-04-02T08:12:04.242Z,36.77
2018-04-02T08:14:32.587Z,36.70
2018-04-02T08:17:00.939Z,40.70
2018-04-02T08:19:30.077Z,41.10
2018-04-02T08:21:58.566Z,38.13
2018-04-02T08:24:26.921Z,37.10
2018-04-02T08:26:55.300Z,37.07
2018-04-02T08:29:23.643Z,39.60
2018-04-02T08:31:52.006Z,42.57
2018-04-02T08:34:20.364Z,41.57
2018-04-02T08:36:48.708Z,40.97
2018-04-02T08:39:17.851Z,42.43
2018-04-02T08:41:46.376Z,42.63
2018-04-02T08:44:15.518Z,41.30
2018-04-02T08:46:43.884Z,39.07
2018-04-02T08:49:12.993Z,38.37
2018-04-02T08:51:41.440Z,41.53
2018-04-02T08:54:10.708Z,42.33
2018-04-02T08:56:39.054Z,43.00
2018-04-02T08:59:07.440Z,43.90
2018-04-02T09:01:35.780Z,38.67
2018-04-02T09:04:04.129Z,39.20
2018-04-02T09:06:32.499Z,39.77
2018-04-02T09:09:00.852Z,38.77
2018-04-02T09:11:29.320Z,43.53
2018-04-02T09:13:57.668Z,40.80
2018-04-02T09:16:26.801Z,41.67
2018-04-02T09:18:55.149Z,41.53
2018-04-02T09:21:24.270Z,41.13
2018-04-02T09:23:52.649Z,39.93
2018-04-02T09:26:21.160Z,42.50
2018-04-02T09:28:49.520Z,47.57
2018-04-02T09:31:17.881Z,49.03
2018-04-02T09:33:46.362Z,47.03
2018-04-02T09:36:15.465Z,50.40
2018-04-02T09:38:43.820Z,45.80
2018-04-02T09:41:12.944Z,50.60
2018-04-02T09:43:41.330Z,51.70
2018-04-02T09:46:09.733Z,52.97
2018-04-02T09:48:38.140Z,54.70
2018-04-02T09:51:06.475Z,55.37
2018-04-02T09:53:34.863Z,53.97
2018-04-02T09:56:03.204Z,55.00
2018-04-02T09:58:31.563Z,58.63
2018-04-02T10:01:00.704Z,56.57
2018-04-02T10:03:34.689Z,57.60
2018-04-02T10:06:03.096Z,56.33
2018-04-02T10:08:31.452Z,58.70
2018-04-02T10:10:59.850Z,58.90
2018-04-02T10:13:28.209Z,61.43
2018-04-02T10:15:56.573Z,61.10
2018-04-02T10:18:25.691Z,60.50
2018-04-02T10:20:54.085Z,73.43
2018-04-02T10:23:22.475Z,60.47
2018-04-02T10:25:50.921Z,58.77
2018-04-02T10:28:19.316Z,55.67
2018-04-02T10:30:48.116Z,55.93
2018-04-02T10:33:17.524Z,55.20
2018-04-02T10:35:45.856Z,57.90
2018-04-02T10:38:14.975Z,55.23
2018-04-02T10:40:43.393Z,54.23
2018-04-02T10:43:11.771Z,55.70
2018-04-02T10:45:40.139Z,55.97
2018-04-02T10:48:08.648Z,52.07
2018-04-02T10:50:37.004Z,53.00
2018-04-02T10:53:05.515Z,53.83
2018-04-02T10:55:33.978Z,54.63
2018-04-02T10:58:02.353Z,51.83
2018-04-02T11:00:30.828Z,50.93
2018-04-02T11:02:59.177Z,50.57
2018-04-02T11:05:27.592Z,46.50
2018-04-02T11:07:55.941Z,47.27
2018-04-02T11:10:24.316Z,41.97
2018-04-02T11:12:52.678Z,42.00
2018-04-02T11:15:21.834Z,42.87
2018-04-02T11:17:50.212Z,40.90
2018-04-02T11:20:18.542Z,42.93
2018-04-02T11:22:46.921Z,44.13
2018-04-02T11:25:16.024Z,43.13
2018-04-02T11:27:44.384Z,44.67
2018-04-02T11:30:13.522Z,45.90
2018-04-02T11:32:42.831Z,45.30
2018-04-02T11:35:11.408Z,44.57
2018-04-02T11:37:39.755Z,42.43
2018-04-02T11:40:08.103Z,42.60
2018-04-02T11:42:36.460Z,42.03
2018-04-02T11:45:04.824Z,42.83
2018-04-02T11:47:33.768Z,42.47
2018-04-02T11:50:02.896Z,40.97
2018-04-02T11:52:31.278Z,40.73
2018-04-02T11:54:59.695Z,38.83
2018-04-02T11:57:28.041Z,35.83
2018-04-02T11:59:56.423Z,38.60
2018-04-02T12:02:24.793Z,36.43
2018-04-02T12:04:53.182Z,34.33
2018-04-02T12:07:21.540Z,33.50
2018-04-02T12:09:49.896Z,31.13
2018-04-02T12:12:19.104Z,30.33
2018-04-02T12:14:48.235Z,30.10
2018-04-02T12:17:16.657Z,28.97
2018-04-02T12:19:45.091Z,29.43
2018-04-02T12:22:13.476Z,29.20
2018-04-02T12:24:41.826Z,29.97
2018-04-02T12:27:10.203Z,27.40
2018-04-02T12:29:39.345Z,27.93
2018-04-02T12:32:07.777Z,26.67
2018-04-02T12:34:36.898Z,27.73
2018-04-02T12:37:05.301Z,28.57
2018-04-02T12:39:33.757Z,27.20
2018-04-02T12:42:02.248Z,28.20
2018-04-02T12:44:30.579Z,31.90
2018-04-02T12:46:59.736Z,29.90
2018-04-02T12:49:28.109Z,28.30
2018-04-02T12:51:56.480Z,26.03
2018-04-02T12:54:24.855Z,30.40
2018-04-02T12:56:53.199Z,33.77
2018-04-02T12:59:22.611Z,35.77
2018-04-02T13:01:51.029Z,33.53
2018-04-02T13:04:19.383Z,31.87
2018-04-02T13:06:47.763Z,30.77
2018-04-02T13:09:16.128Z,30.57
2018-04-02T13:11:45.063Z,28.47
2018-04-02T13:14:13.524Z,28.87
2018-04-02T13:16:41.868Z,29.73
2018-04-02T13:19:10.236Z,30.57
2018-04-02T13:21:38.748Z,33.43
2018-04-02T13:24:07.117Z,33.90
2018-04-02T13:26:35.467Z,32.13
2018-04-02T13:29:03.924Z,29.50
2018-04-02T13:31:32.325Z,29.57
2018-04-02T13:34:00.626Z,28.67
2018-04-02T13:36:29.801Z,27.07
2018-04-02T13:38:58.299Z,26.27
2018-04-02T13:41:26.644Z,26.13
2018-04-02T13:43:55.003Z,23.80
2018-04-02T13:46:23.436Z,23.87
2018-04-02T13:48:51.806Z,24.47
2018-04-02T13:51:20.226Z,27.90
2018-04-02T13:53:48.692Z,26.70
2018-04-02T13:56:17.092Z,24.43
2018-04-02T13:58:46.223Z,23.40
2018-04-02T14:01:14.823Z,23.43
2018-04-02T14:03:43.171Z,24.20
2018-04-02T14:06:11.524Z,26.20
2018-04-02T14:08:39.928Z,23.80
2018-04-02T14:11:08.286Z,24.60
2018-04-02T14:13:36.684Z,23.67
2018-04-02T14:16:05.062Z,23.57
2018-04-02T14:18:33.449Z,24.53
2018-04-02T14:21:01.821Z,24.13
2018-04-02T14:23:30.266Z,22.30
2018-04-02T14:25:59.329Z,21.23
2018-04-02T14:28:27.714Z,22.87
2018-04-02T14:30:56.052Z,21.43
2018-04-02T14:33:24.446Z,24.63
2018-04-02T14:35:52.785Z,33.00
2018-04-02T14:38:22.102Z,22.60
2018-04-02T14:40:50.452Z,21.00
2018-04-02T14:43:19.619Z,21.43
2018-04-02T14:45:47.961Z,19.47
2018-04-02T14:48:16.358Z,20.10
2018-04-02T14:50:44.719Z,21.53
2018-04-02T14:53:13.065Z,21.57
2018-04-02T14:55:41.412Z,22.07
2018-04-02T14:58:09.836Z,20.27
2018-04-02T15:00:38.986Z,21.07
2018-04-02T15:03:07.377Z,19.83
2018-04-02T15:05:35.878Z,20.23
2018-04-02T15:08:04.224Z,18.83
2018-04-02T15:10:32.689Z,19.43
2018-04-02T15:13:01.151Z,18.17
2018-04-02T15:15:29.595Z,18.50
2018-04-02T15:17:58.935Z,19.00
2018-04-02T15:20:27.307Z,18.27
2018-04-02T15:22:55.738Z,17.57
2018-04-02T15:25:24.266Z,17.27
2018-04-02T15:27:52.638Z,18.13
2018-04-02T15:30:21.790Z,17.67
2018-04-02T15:32:50.130Z,16.93
2018-04-02T15:35:18.540Z,16.27
2018-04-02T15:37:46.896Z,16.60
2018-04-02T15:40:15.301Z,16.53
2018-04-02T15:42:43.680Z,17.33
2018-04-02T15:45:12.025Z,14.90
2018-04-02T15:47:40.426Z,15.20
2018-04-02T15:50:08.796Z,15.03
2018-04-02T15:52:37.291Z,14.47
2018-04-02T15:55:05.638Z,16.23
2018-04-02T15:57:33.995Z,15.27
2018-04-02T16:00:02.386Z,14.03
2018-04-02T16:02:31.537Z,14.63
2018-04-02T16:04:59.902Z,14.90
2018-04-02T16:07:28.292Z,18.20
2018-04-02T16:09:56.645Z,16.77
2018-04-02T16:12:25.011Z,15.97
2018-04-02T16:14:54.149Z,16.33
2018-04-02T16:17:22.541Z,15.57
2018-04-02T16:19:51.043Z,14.87
2018-04-02T16:22:19.430Z,14.77
2018-04-02T16:24:48.759Z,15.43
2018-04-02T16:27:17.121Z,15.10
2018-04-02T16:29:46.268Z,14.40
2018-04-02T16:32:14.643Z,15.67
2018-04-02T16:34:43.022Z,15.73
2018-04-02T16:37:11.545Z,14.77
2018-04-02T16:39:39.832Z,20.80
2018-04-02T16:42:08.208Z,16.17
2018-04-02T16:44:36.591Z,16.00
2018-04-02T16:47:05.810Z,15.27
2018-04-02T16:49:34.212Z,15.40
2018-04-02T16:52:03.156Z,15.40
2018-04-02T16:54:32.307Z,15.80
2018-04-02T16:57:00.669Z,15.13
2018-04-02T16:59:29.128Z,15.00
2018-04-02T17:01:58.272Z,15.77
2018-04-02T17:04:26.653Z,14.50
2018-04-02T17:06:54.999Z,13.10
2018-04-02T17:09:23.363Z,13.57
2018-04-02T17:11:52.508Z,18.70
2018-04-02T17:14:20.910Z,26.60
2018-04-02T17:16:49.362Z,25.43
2018-04-02T17:19:17.717Z,25.63
2018-04-02T17:21:46.096Z,26.90
2018-04-02T17:24:14.545Z,26.90
2018-04-02T17:26:42.912Z,26.87
2018-04-02T17:29:11.276Z,26.83
2018-04-02T17:31:39.713Z,26.97
2018-04-02T17:34:08.105Z,27.30
2018-04-02T17:36:36.521Z,25.43
2018-04-02T17:39:04.901Z,28.67
2018-04-02T17:41:33.250Z,27.40
2018-04-02T17:44:01.634Z,28.10
2018-04-02T17:46:30.560Z,28.40
2018-04-02T17:48:58.925Z,28.53
2018-04-02T17:51:27.271Z,32.30
2018-04-02T17:53:55.669Z,28.00
2018-04-02T17:56:24.011Z,27.60
2018-04-02T17:58:53.275Z,26.90
2018-04-02T18:01:21.674Z,26.87
2018-04-02T18:03:50.149Z,26.83
2018-04-02T18:06:18.627Z,27.10
2018-04-02T18:08:46.967Z,27.63
2018-04-02T18:11:15.392Z,27.47
2018-04-02T18:13:43.752Z,28.00
2018-04-02T18:16:12.144Z,26.97
2018-04-02T18:18:40.527Z,26.80
2018-04-02T18:21:08.866Z,25.97
2018-04-02T18:23:37.252Z,27.90
2018-04-02T18:26:05.620Z,26.83
2018-04-02T18:28:34.083Z,26.93
2018-04-02T18:31:02.445Z,27.97
2018-04-02T18:33:31.794Z,27.23
2018-04-02T18:36:00.259Z,34.83
2018-04-02T18:38:28.750Z,28.07
2018-04-02T18:40:57.110Z,28.23
2018-04-02T18:43:25.562Z,27.43
2018-04-02T18:45:54.049Z,27.43
2018-04-02T18:48:22.401Z,29.97
2018-04-02T18:50:50.849Z,27.83
2018-04-02T18:53:19.161Z,28.90
2018-04-02T18:55:47.560Z,26.97
2018-04-02T18:58:15.975Z,26.77
2018-04-02T19:00:44.574Z,27.20
2018-04-02T19:03:12.974Z,27.33
2018-04-02T19:05:41.308Z,27.33
2018-04-02T19:08:09.739Z,26.77
2018-04-02T19:10:38.216Z,26.30
2018-04-02T19:13:06.593Z,28.37
2018-04-02T19:15:34.936Z,28.07
2018-04-02T19:18:03.741Z,28.73
2018-04-02T19:20:32.305Z,29.07
2018-04-02T19:23:00.721Z,28.37
2018-04-02T19:25:29.309Z,28.03
2018-04-02T19:27:57.654Z,29.00
2018-04-02T19:30:26.090Z,28.77
2018-04-02T19:32:54.621Z,28.00
2018-04-02T19:35:23.047Z,27.23
2018-04-02T19:37:51.394Z,27.87
2018-04-02T19:40:19.752Z,27.77
2018-04-02T19:42:48.577Z,26.47
2018-04-02T19:45:16.924Z,26.63
2018-04-02T19:47:45.285Z,28.10
2018-04-02T19:50:14.480Z,26.93
2018-04-02T19:52:43.649Z,28.57
2018-04-02T19:55:12.115Z,26.97
2018-04-02T19:57:40.456Z,29.03
2018-04-02T20:00:08.923Z,26.97
2018-04-02T20:02:37.286Z,32.23
2018-04-02T20:05:06.409Z,30.60
2018-04-02T20:07:34.874Z,30.03
2018-04-02T20:10:04.009Z,29.30
2018-04-02T20:12:32.414Z,29.27
2018-04-02T20:15:00.778Z,28.07
2018-04-02T20:17:29.938Z,29.67
2018-04-02T20:19:58.309Z,28.63
2018-04-02T20:22:27.489Z,29.50
2018-04-02T20:24:56.612Z,27.73
2018-04-02T20:27:24.964Z,27.80
2018-04-02T20:29:53.324Z,28.47
2018-04-02T20:32:21.717Z,28.17
2018-04-02T20:34:50.087Z,28.83
2018-04-02T20:37:18.482Z,29.37
2018-04-02T20:39:46.961Z,27.67
2018-04-02T20:42:15.397Z,29.63
2018-04-02T20:44:43.884Z,39.53
2018-04-02T20:47:12.228Z,35.60
2018-04-02T20:49:40.636Z,28.77
2018-04-02T20:52:08.994Z,28.43
2018-04-02T20:54:37.391Z,27.93
2018-04-02T20:57:05.741Z,26.67
2018-04-02T20:59:34.151Z,27.40
2018-04-02T21:02:02.646Z,27.53
2018-04-02T21:04:31.111Z,27.13
2018-04-02T21:06:59.472Z,26.60
2018-04-02T21:09:27.961Z,26.10
2018-04-02T21:12:00.300Z,25.83
2018-04-02T21:14:29.437Z,25.17
2018-04-02T21:16:57.789Z,23.87
2018-04-02T21:19:26.210Z,23.10
2018-04-02T21:21:54.659Z,23.10
2018-04-02T21:24:23.057Z,22.43
2018-04-02T21:26:51.481Z,21.73
2018-04-02T21:29:19.891Z,20.23
2018-04-02T21:31:49.148Z,19.80
2018-04-02T21:34:17.514Z,18.67
2018-04-02T21:36:45.873Z,15.30
2018-04-02T21:39:14.217Z,14.10
2018-04-02T21:41:43.371Z,11.70
2018-04-02T21:44:11.739Z,12.67
2018-04-02T21:46:40.364Z,12.27
2018-04-02T21:49:09.014Z,12.57
2018-04-02T21:51:37.679Z,12.60
2018-04-02T21:54:06.043Z,11.77
2018-04-02T21:56:34.541Z,12.67
2018-04-02T21:59:02.952Z,11.53
2018-04-02T22:01:31.382Z,11.37
2018-04-02T22:04:00.537Z,10.83
2018-04-02T22:09:29.969Z,11.35
2018-04-02T22:11:58.380Z,9.50
2018-04-02T22:14:27.520Z,7.27
2018-04-02T22:16:56.288Z,6.43
2018-04-02T22:19:24.786Z,6.47
2018-04-02T22:21:53.164Z,5.97
2018-04-02T22:24:21.570Z,5.90
2018-04-02T22:26:49.944Z,5.90
2018-04-02T22:29:18.358Z,6.33
2018-04-02T22:31:46.704Z,6.20
2018-04-02T22:34:15.032Z,5.67
2018-04-02T22:36:44.537Z,6.90
2018-04-02T22:39:13.997Z,6.03
2018-04-02T22:41:42.376Z,6.57
2018-04-02T22:44:11.531Z,5.60
2018-04-02T22:46:40.128Z,6.03
2018-04-02T22:49:08.627Z,5.53
2018-04-02T22:51:37.099Z,5.13
2018-04-02T22:54:05.467Z,5.63
2018-04-02T22:56:33.800Z,5.63
2018-04-02T22:59:02.270Z,5.43
2018-04-02T23:01:30.750Z,6.20
2018-04-02T23:03:59.101Z,5.87
2018-04-02T23:06:27.644Z,6.13
2018-04-02T23:08:56.032Z,6.33
2018-04-02T23:11:24.478Z,6.10
2018-04-02T23:13:52.956Z,7.00
2018-04-02T23:16:22.115Z,6.00
2018-04-02T23:18:50.524Z,6.63
2018-04-02T23:21:19.068Z,6.57
2018-04-02T23:23:47.675Z,5.97
2018-04-02T23:26:16.379Z,6.73
2018-04-02T23:28:44.788Z,6.67
2018-04-02T23:31:14.053Z,6.97
2018-04-02T23:33:42.635Z,6.50
2018-04-02T23:36:11.197Z,7.30
2018-04-02T23:38:39.750Z,6.10
2018-04-02T23:41:08.860Z,6.77
2018-04-02T23:43:37.293Z,6.93
2018-04-02T23:46:05.794Z,6.63
2018-04-02T23:48:34.994Z,6.90
2018-04-02T23:51:03.403Z,7.47
2018-04-02T23:53:32.163Z,6.90
2018-04-02T23:56:00.924Z,7.30
2018-04-02T23:58:29.267Z,8.27
